createdAt,value
2019-03-08T00:03:53.281Z,96677.00
2019-03-08T00:07:54.181Z,96693.00
2019-03-08T00:11:55.042Z,96691.00
2019-03-08T00:15:55.927Z,96688.00
2019-03-08T00:19:56.829Z,96701.00
2019-03-08T00:23:57.990Z,96713.00
2019-03-08T00:27:58.987Z,96715.00
2019-03-08T00:32:00.236Z,96725.00
2019-03-08T00:36:01.112Z,96736.00
2019-03-08T00:40:22.163Z,96735.00
2019-03-08T00:44:23.146Z,96745.00
2019-03-08T00:48:24.007Z,96745.00
2019-03-08T00:52:24.905Z,96736.00
2019-03-08T00:56:26.080Z,96732.00
2019-03-08T01:00:27.188Z,96732.00
2019-03-08T01:04:28.051Z,96745.00
2019-03-08T01:08:28.903Z,96746.00
2019-03-08T01:12:29.888Z,96741.00
2019-03-08T01:16:30.956Z,96744.00
2019-03-08T01:20:31.920Z,96764.00
2019-03-08T01:24:33.260Z,96759.00
2019-03-08T01:28:34.435Z,96764.00
2019-03-08T01:32:35.643Z,96763.00
2019-03-08T01:36:36.616Z,96760.00
2019-03-08T01:40:37.557Z,96763.00
2019-03-08T01:44:38.441Z,96766.00
2019-03-08T01:48:39.442Z,96765.00
2019-03-08T01:52:40.517Z,96769.00
2019-03-08T01:56:42.853Z,96772.00
2019-03-08T02:00:43.994Z,96780.00
2019-03-08T02:04:44.953Z,96769.00
2019-03-08T02:08:45.855Z,96769.00
2019-03-08T02:12:46.875Z,96782.00
2019-03-08T02:16:47.780Z,96768.00
2019-03-08T02:20:48.812Z,96762.00
2019-03-08T02:24:49.692Z,96772.00
2019-03-08T02:28:50.576Z,96763.00
2019-03-08T02:32:51.545Z,96761.00
2019-03-08T02:36:52.526Z,96765.00
2019-03-08T02:40:53.494Z,96783.00
2019-03-08T02:44:54.375Z,96770.00
2019-03-08T02:48:55.261Z,96777.00
2019-03-08T02:52:56.306Z,96762.00
2019-03-08T02:56:57.275Z,96782.00
2019-03-08T03:00:58.280Z,96770.00
2019-03-08T03:04:59.184Z,96776.00
2019-03-08T03:09:00.055Z,96782.00
2019-03-08T03:13:01.095Z,96780.00
2019-03-08T03:17:01.977Z,96786.00
2019-03-08T03:21:03.527Z,96784.00
2019-03-08T03:25:06.402Z,96784.00
2019-03-08T03:29:07.289Z,96786.00
2019-03-08T03:33:08.186Z,96800.00
2019-03-08T03:37:09.253Z,96804.00
2019-03-08T03:41:10.309Z,96802.00
2019-03-08T03:45:13.602Z,96819.00
2019-03-08T03:49:14.446Z,96826.00
2019-03-08T03:53:15.315Z,96824.00
2019-03-08T03:57:16.203Z,96830.00
2019-03-08T04:01:28.305Z,96845.00
2019-03-08T04:05:29.329Z,96852.00
2019-03-08T04:09:30.288Z,96845.00
2019-03-08T04:13:31.161Z,96858.00
2019-03-08T04:17:32.114Z,96849.00
2019-03-08T04:21:33.400Z,96865.00
2019-03-08T04:25:34.251Z,96858.00
2019-03-08T04:29:35.329Z,96862.00
2019-03-08T04:33:36.232Z,96867.00
2019-03-08T04:37:37.279Z,96881.00
2019-03-08T04:41:38.128Z,96891.00
2019-03-08T04:45:39.390Z,96886.00
2019-03-08T04:49:40.384Z,96902.00
2019-03-08T04:53:41.440Z,96912.00
2019-03-08T04:57:42.424Z,96914.00
2019-03-08T05:01:43.310Z,96933.00
2019-03-08T05:05:44.193Z,96949.00
2019-03-08T05:09:45.171Z,96955.00
2019-03-08T05:13:46.066Z,96948.00
2019-03-08T05:17:46.920Z,96951.00
2019-03-08T05:21:47.793Z,96963.00
2019-03-08T05:25:48.868Z,96965.00
2019-03-08T05:29:49.774Z,96971.00
2019-03-08T05:33:50.723Z,96972.00
2019-03-08T05:37:51.698Z,96977.00
2019-03-08T05:41:52.584Z,96979.00
2019-03-08T05:45:53.474Z,96981.00
2019-03-08T05:49:54.339Z,96985.00
2019-03-08T05:53:55.438Z,97000.00
2019-03-08T05:57:56.375Z,96987.00
2019-03-08T06:01:57.388Z,97012.00
2019-03-08T06:05:58.248Z,97015.00
2019-03-08T06:09:59.105Z,97018.00
2019-03-08T06:13:59.978Z,97019.00
2019-03-08T06:18:01.052Z,97033.00
2019-03-08T06:22:02.018Z,97037.00
2019-03-08T06:26:02.919Z,97048.00
2019-03-08T06:30:06.893Z,97049.00
2019-03-08T06:34:07.890Z,97054.00
2019-03-08T06:38:09.019Z,97065.00
2019-03-08T06:42:09.988Z,97085.00
2019-03-08T06:46:10.971Z,97082.00
2019-03-08T06:50:13.535Z,97094.00
2019-03-08T06:54:14.414Z,97103.00
2019-03-08T06:58:17.320Z,97103.00
2019-03-08T07:02:18.921Z,97110.00
2019-03-08T07:06:19.987Z,97129.00
2019-03-08T07:10:20.950Z,97139.00
2019-03-08T07:14:21.849Z,97148.00
2019-03-08T07:18:22.722Z,97166.00
2019-03-08T07:22:25.507Z,97176.00
2019-03-08T07:26:43.420Z,97178.00
2019-03-08T07:31:03.040Z,97192.00
2019-03-08T07:35:06.633Z,97205.00
2019-03-08T22:02:21.798Z,97766.00
2019-03-08T22:06:22.935Z,97757.00
2019-03-08T22:10:25.746Z,97749.00
2019-03-08T22:14:27.016Z,97743.00
2019-03-08T22:18:27.889Z,97746.00
2019-03-08T22:22:28.825Z,97741.00
2019-03-08T22:26:29.818Z,97737.00
2019-03-08T22:30:30.844Z,97737.00
2019-03-08T22:34:31.727Z,97723.00
2019-03-08T22:38:32.612Z,97717.00
2019-03-08T22:42:33.617Z,97710.00
2019-03-08T22:46:34.609Z,97681.00
2019-03-08T22:50:35.586Z,97693.00
2019-03-08T22:54:36.540Z,97694.00
2019-03-08T22:58:37.458Z,97690.00
2019-03-08T23:02:38.623Z,97686.00
2019-03-08T23:06:39.689Z,97688.00
2019-03-08T23:10:40.647Z,97674.00
2019-03-08T23:14:41.555Z,97660.00
2019-03-08T23:18:42.435Z,97651.00
2019-03-08T23:22:43.517Z,97642.00
2019-03-08T23:26:46.437Z,97643.00
2019-03-08T23:30:55.150Z,97652.00
2019-03-08T23:34:56.560Z,97639.00
2019-03-08T23:38:57.427Z,97641.00
2019-03-08T23:42:58.286Z,97625.00
2019-03-08T23:46:59.290Z,97638.00
2019-03-08T23:51:00.136Z,97644.00
2019-03-08T23:55:01.032Z,97628.00
2019-03-08T23:59:01.926Z,97620.00
